createdAt,value
2022-09-06T00:00:43.593Z,2.28
2022-09-06T00:03:10.111Z,2.10
2022-09-06T00:05:37.658Z,1.98
2022-09-06T00:08:05.855Z,2.35
2022-09-06T00:10:33.132Z,2.08
2022-09-06T00:13:08.578Z,2.40
2022-09-06T00:15:36.809Z,2.20
2022-09-06T00:18:06.341Z,2.05
2022-09-06T00:20:33.455Z,2.30
2022-09-06T00:23:02.160Z,2.30
2022-09-06T00:25:30.584Z,2.25
2022-09-06T00:27:58.852Z,2.30
2022-09-06T00:30:26.344Z,2.58
2022-09-06T00:32:54.622Z,2.50
2022-09-06T00:35:23.126Z,2.25
2022-09-06T00:37:49.475Z,2.40
2022-09-06T00:40:16.309Z,2.03
2022-09-06T00:42:42.868Z,2.10
2022-09-06T00:45:11.354Z,2.00
2022-09-06T00:47:42.142Z,2.70
2022-09-06T00:50:10.905Z,2.50
2022-09-06T00:52:39.103Z,2.15
2022-09-06T00:55:06.987Z,1.85
2022-09-06T00:57:34.899Z,2.10
2022-09-06T01:00:04.210Z,2.00
2022-09-06T01:02:31.106Z,2.38
2022-09-06T01:04:57.870Z,2.45
2022-09-06T01:07:44.653Z,2.30
2022-09-06T01:10:20.015Z,2.38
2022-09-06T01:13:22.031Z,1.98
2022-09-06T01:16:13.594Z,2.35
2022-09-06T01:18:53.021Z,2.03
2022-09-06T01:21:25.470Z,2.42
2022-09-06T01:24:14.055Z,2.63
2022-09-06T01:26:59.346Z,2.55
2022-09-06T01:29:47.371Z,2.25
2022-09-06T01:32:32.046Z,2.17
2022-09-06T01:35:08.206Z,2.00
2022-09-06T01:37:34.938Z,2.25
2022-09-06T01:40:01.510Z,2.00
2022-09-06T01:42:31.273Z,2.50
2022-09-06T01:45:19.136Z,2.15
2022-09-06T01:48:07.468Z,2.20
2022-09-06T01:51:01.230Z,2.30
2022-09-06T01:53:47.303Z,1.98
2022-09-06T01:56:32.478Z,2.00
2022-09-06T01:59:11.515Z,2.40
2022-09-06T02:01:43.846Z,2.40
2022-09-06T02:04:10.716Z,2.63
2022-09-06T02:06:45.015Z,2.45
2022-09-06T02:09:16.544Z,2.05
2022-09-06T02:11:50.624Z,2.33
2022-09-06T02:14:24.438Z,2.72
2022-09-06T02:16:54.847Z,2.50
2022-09-06T02:19:33.235Z,2.33
2022-09-06T02:22:03.734Z,2.05
2022-09-06T02:24:32.960Z,2.42
2022-09-06T02:26:59.443Z,2.13
2022-09-06T02:29:26.227Z,2.42
2022-09-06T02:31:59.632Z,2.45
2022-09-06T02:34:26.199Z,2.40
2022-09-06T02:36:54.060Z,2.38
2022-09-06T02:39:21.199Z,2.00
2022-09-06T02:41:48.259Z,2.70
2022-09-06T02:44:15.355Z,2.22
2022-09-06T02:46:42.629Z,2.50
2022-09-06T02:49:08.999Z,2.25
2022-09-06T02:51:39.322Z,2.35
2022-09-06T02:54:07.644Z,2.60
2022-09-06T02:56:36.400Z,2.50
2022-09-06T02:59:05.409Z,2.30
2022-09-06T03:01:33.427Z,2.20
2022-09-06T03:03:59.860Z,2.28
2022-09-06T03:06:26.223Z,2.50
2022-09-06T03:08:53.073Z,2.60
2022-09-06T03:11:19.462Z,2.65
2022-09-06T03:13:45.850Z,2.10
2022-09-06T03:16:12.806Z,2.10
2022-09-06T03:18:40.017Z,2.40
2022-09-06T03:21:06.378Z,2.45
2022-09-06T03:23:33.864Z,2.45
2022-09-06T03:26:00.279Z,2.40
2022-09-06T03:28:26.920Z,2.00
2022-09-06T03:30:54.204Z,2.75
2022-09-06T03:33:20.901Z,2.17
2022-09-06T03:35:56.354Z,2.40
2022-09-06T03:38:23.675Z,2.17
2022-09-06T03:40:50.574Z,2.38
2022-09-06T03:43:18.651Z,2.10
2022-09-06T03:45:49.791Z,2.72
2022-09-06T03:48:18.607Z,2.15
2022-09-06T03:50:46.693Z,2.58
2022-09-06T03:53:14.147Z,2.17
2022-09-06T03:55:41.079Z,2.50
2022-09-06T03:58:07.435Z,2.50
2022-09-06T04:00:33.918Z,2.03
2022-09-06T04:03:01.919Z,2.80
2022-09-06T04:05:28.601Z,2.40
2022-09-06T04:07:55.047Z,2.67
2022-09-06T04:10:22.064Z,2.42
2022-09-06T04:12:48.410Z,2.22
2022-09-06T04:15:14.896Z,3.20
2022-09-06T04:17:45.823Z,2.92
2022-09-06T04:20:15.814Z,2.53
2022-09-06T04:22:42.207Z,2.60
2022-09-06T04:25:09.431Z,2.90
2022-09-06T04:27:35.860Z,3.03
2022-09-06T04:30:02.279Z,3.13
2022-09-06T04:32:29.115Z,3.80
2022-09-06T04:34:55.511Z,2.97
2022-09-06T04:37:21.930Z,3.15
2022-09-06T04:39:49.112Z,3.20
2022-09-06T04:42:15.692Z,3.40
2022-09-06T04:44:42.632Z,3.45
2022-09-06T04:47:18.471Z,4.22
2022-09-06T04:49:45.784Z,4.30
2022-09-06T04:52:12.397Z,4.28
2022-09-06T04:54:38.957Z,4.18
2022-09-06T04:57:05.928Z,3.08
2022-09-06T04:59:32.765Z,4.50
2022-09-06T05:01:59.320Z,4.82
2022-09-06T05:04:26.449Z,6.30
2022-09-06T05:07:11.356Z,2.70
2022-09-06T05:09:37.807Z,4.68
2022-09-06T05:12:04.614Z,5.15
2022-09-06T05:14:31.407Z,3.10
2022-09-06T05:16:57.975Z,4.22
2022-09-06T05:19:24.991Z,4.38
2022-09-06T05:21:52.676Z,4.90
2022-09-06T05:24:19.170Z,4.88
2022-09-06T05:26:45.514Z,5.55
2022-09-06T05:29:12.537Z,5.55
2022-09-06T05:31:38.981Z,6.22
2022-09-06T05:34:06.074Z,5.60
2022-09-06T05:36:32.929Z,6.00
2022-09-06T05:38:59.974Z,7.22
2022-09-06T05:41:27.085Z,5.53
2022-09-06T05:43:53.672Z,3.97
2022-09-06T05:46:20.639Z,5.50
2022-09-06T05:49:07.834Z,5.90
2022-09-06T05:51:34.454Z,5.22
2022-09-06T05:54:01.363Z,4.95
2022-09-06T05:56:28.377Z,5.47
2022-09-06T05:58:54.743Z,5.78
2022-09-06T06:01:27.094Z,6.63
2022-09-06T06:04:02.072Z,6.10
2022-09-06T06:06:34.292Z,6.97
2022-09-06T06:09:01.272Z,6.47
2022-09-06T06:11:28.267Z,6.70
2022-09-06T06:13:55.316Z,6.20
2022-09-06T06:16:22.946Z,5.63
2022-09-06T06:18:52.272Z,5.47
2022-09-06T06:21:21.937Z,6.28
2022-09-06T06:23:56.959Z,5.93
2022-09-06T06:26:24.249Z,5.93
2022-09-06T06:28:51.513Z,6.32
2022-09-06T06:31:19.364Z,5.38
2022-09-06T06:33:46.235Z,6.03
2022-09-06T06:36:13.502Z,6.25
2022-09-06T06:38:42.265Z,5.85
2022-09-06T06:41:11.024Z,5.90
2022-09-06T06:43:37.954Z,5.90
2022-09-06T06:46:09.889Z,6.10
2022-09-06T06:48:40.507Z,5.85
2022-09-06T06:51:08.063Z,6.20
2022-09-06T06:53:35.314Z,5.55
2022-09-06T06:56:02.669Z,5.75
2022-09-06T06:58:30.775Z,5.85
2022-09-06T07:00:57.211Z,5.85
2022-09-06T07:03:24.404Z,5.88
2022-09-06T07:08:38.467Z,5.70
2022-09-06T07:11:06.947Z,5.25
2022-09-06T07:13:34.487Z,6.00
2022-09-06T07:16:21.560Z,6.60
2022-09-06T07:18:52.496Z,6.05
2022-09-06T07:21:41.942Z,5.25
2022-09-06T07:24:09.786Z,6.13
2022-09-06T07:26:38.496Z,6.68
2022-09-06T07:29:05.923Z,6.47
2022-09-06T07:34:20.359Z,6.63
2022-09-06T07:36:47.427Z,6.93
2022-09-06T07:39:14.095Z,6.90
2022-09-06T07:41:40.674Z,7.10
2022-09-06T07:44:07.812Z,6.65
2022-09-06T07:46:34.543Z,7.78
2022-09-06T07:49:07.555Z,6.63
2022-09-06T07:51:34.099Z,6.60
2022-09-06T07:54:29.263Z,7.13
2022-09-06T07:56:47.095Z,6.72
2022-09-06T07:59:13.505Z,6.93
2022-09-06T08:01:40.808Z,6.90
2022-09-06T08:04:15.860Z,7.10
2022-09-06T08:09:38.875Z,6.38
2022-09-06T08:12:08.047Z,6.93
2022-09-06T08:14:35.111Z,7.20
2022-09-06T08:17:03.144Z,6.82
2022-09-06T08:19:29.585Z,7.13
2022-09-06T08:21:56.624Z,7.18
2022-09-06T08:24:23.111Z,6.88
2022-09-06T08:26:49.767Z,6.22
2022-09-06T08:29:16.583Z,6.50
2022-09-06T08:31:44.666Z,7.03
2022-09-06T08:34:14.211Z,6.55
2022-09-06T08:36:42.004Z,6.88
2022-09-06T08:39:09.923Z,6.00
2022-09-06T08:42:01.207Z,6.13
2022-09-06T08:44:58.498Z,6.00
2022-09-06T08:47:25.831Z,6.38
2022-09-06T08:50:02.403Z,5.78
2022-09-06T08:55:43.322Z,5.65
2022-09-06T08:58:34.935Z,6.30
2022-09-06T09:01:11.333Z,5.47
2022-09-06T09:03:40.403Z,4.95
2022-09-06T09:06:10.059Z,5.70
2022-09-06T09:08:48.438Z,5.28
2022-09-06T09:11:23.551Z,5.40
2022-09-06T09:14:03.330Z,4.85
2022-09-06T09:16:29.986Z,4.97
2022-09-06T09:19:01.431Z,5.30
2022-09-06T09:21:31.278Z,8.57
2022-09-06T09:24:02.821Z,4.63
2022-09-06T09:26:37.103Z,4.75
2022-09-06T09:29:10.910Z,4.03
2022-09-06T09:31:51.318Z,4.80
2022-09-06T09:34:34.733Z,4.72
2022-09-06T09:40:05.755Z,4.68
2022-09-06T09:45:22.592Z,3.42
2022-09-06T09:47:49.611Z,3.70
2022-09-06T09:50:25.655Z,3.88
2022-09-06T09:52:52.674Z,3.42
2022-09-06T09:55:24.915Z,3.67
2022-09-06T09:57:54.663Z,3.60
2022-09-06T10:00:39.989Z,3.40
2022-09-06T10:03:26.988Z,2.80
2022-09-06T10:06:02.629Z,3.65
2022-09-06T10:08:33.753Z,3.40
2022-09-06T10:11:01.321Z,3.15
2022-09-06T10:13:29.625Z,3.05
2022-09-06T10:15:58.855Z,3.40
2022-09-06T10:18:44.802Z,3.30
2022-09-06T10:21:16.270Z,2.58
2022-09-06T10:27:02.437Z,2.90
2022-09-06T10:29:52.862Z,2.92
2022-09-06T10:32:37.611Z,3.03
2022-09-06T10:35:24.180Z,2.95
2022-09-06T10:38:16.947Z,2.70
2022-09-06T10:40:56.428Z,3.10
2022-09-06T10:43:27.627Z,2.70
2022-09-06T10:45:58.216Z,2.80
2022-09-06T10:48:31.038Z,2.60
2022-09-06T10:50:58.540Z,2.90
2022-09-06T10:53:51.551Z,2.75
2022-09-06T10:56:39.939Z,2.97
2022-09-06T11:02:19.531Z,3.13
2022-09-06T11:10:37.828Z,2.78
2022-09-06T11:13:17.181Z,2.80
2022-09-06T11:15:47.238Z,3.08
2022-09-06T11:18:32.498Z,2.80
2022-09-06T11:21:17.482Z,2.85
2022-09-06T11:24:12.201Z,3.40
2022-09-06T11:27:01.352Z,2.90
2022-09-06T11:29:29.972Z,2.97
2022-09-06T11:35:01.416Z,2.80
2022-09-06T11:37:41.658Z,3.13
2022-09-06T11:42:54.994Z,2.78
2022-09-06T11:45:51.893Z,2.90
2022-09-06T11:48:24.751Z,2.85
2022-09-06T11:50:54.240Z,2.70
2022-09-06T11:53:23.832Z,3.10
2022-09-06T11:56:00.088Z,2.65
2022-09-06T11:58:40.049Z,2.50
2022-09-06T12:01:12.896Z,2.70
2022-09-06T12:04:09.075Z,2.77
2022-09-06T12:07:04.083Z,2.50
2022-09-06T12:11:58.680Z,2.75
2022-09-06T12:14:33.032Z,2.83
2022-09-06T12:16:59.334Z,2.40
2022-09-06T12:19:47.310Z,2.65
2022-09-06T12:22:40.240Z,2.47
2022-09-06T12:25:34.586Z,2.83
2022-09-06T12:28:19.883Z,2.67
2022-09-06T12:30:47.964Z,3.08
2022-09-06T12:33:26.074Z,3.05
2022-09-06T12:38:25.128Z,2.75
2022-09-06T12:40:58.075Z,2.70
2022-09-06T12:43:24.908Z,3.58
2022-09-06T12:45:52.380Z,2.67
2022-09-06T12:48:58.880Z,2.60
2022-09-06T12:51:25.678Z,2.85
2022-09-06T12:53:54.969Z,2.65
2022-09-06T12:56:24.026Z,2.88
2022-09-06T12:58:50.396Z,2.40
2022-09-06T13:01:26.650Z,2.65
2022-09-06T13:04:04.992Z,2.25
2022-09-06T13:06:36.615Z,2.60
2022-09-06T13:09:03.572Z,2.70
2022-09-06T13:11:40.074Z,2.55
2022-09-06T13:14:14.287Z,2.22
2022-09-06T13:16:48.450Z,2.60
2022-09-06T13:19:18.848Z,2.40
2022-09-06T13:21:46.667Z,2.35
2022-09-06T13:24:20.614Z,2.17
2022-09-06T13:26:47.069Z,2.67
2022-09-06T13:29:16.525Z,2.35
2022-09-06T13:31:52.647Z,2.67
2022-09-06T13:34:30.403Z,2.33
2022-09-06T13:37:04.158Z,2.25
2022-09-06T13:42:24.769Z,2.53
2022-09-06T13:44:51.223Z,2.20
2022-09-06T13:47:17.561Z,2.97
2022-09-06T13:49:44.553Z,2.65
2022-09-06T13:52:10.928Z,2.80
2022-09-06T13:54:37.316Z,2.38
2022-09-06T13:57:04.509Z,3.13
2022-09-06T13:59:31.574Z,2.67
2022-09-06T14:02:05.990Z,2.85
2022-09-06T14:04:32.521Z,2.47
2022-09-06T14:06:59.634Z,2.40
2022-09-06T14:09:26.083Z,2.70
2022-09-06T14:11:52.484Z,2.60
2022-09-06T14:14:19.959Z,2.50
2022-09-06T14:16:47.586Z,2.65
2022-09-06T14:19:14.573Z,2.97
2022-09-06T14:21:41.419Z,2.45
2022-09-06T14:24:08.462Z,3.20
2022-09-06T14:26:36.510Z,3.72
2022-09-06T14:29:03.648Z,2.95
2022-09-06T14:31:32.416Z,2.58
2022-09-06T14:33:59.486Z,2.75
2022-09-06T14:36:29.760Z,2.65
2022-09-06T14:38:58.411Z,2.25
2022-09-06T14:41:25.037Z,2.50
2022-09-06T14:43:55.004Z,3.22
2022-09-06T14:46:24.056Z,3.22
2022-09-06T14:49:10.396Z,2.90
2022-09-06T14:51:38.426Z,2.97
2022-09-06T14:54:08.997Z,2.85
2022-09-06T14:56:36.673Z,2.75
2022-09-06T14:59:03.633Z,2.88
2022-09-06T15:01:37.811Z,3.20
2022-09-06T15:04:07.961Z,2.83
2022-09-06T15:06:36.719Z,2.80
2022-09-06T15:09:04.492Z,2.70
2022-09-06T15:11:34.895Z,2.67
2022-09-06T15:14:31.361Z,3.00
2022-09-06T15:17:00.341Z,3.20
2022-09-06T15:19:29.329Z,3.10
2022-09-06T15:21:58.314Z,3.40
2022-09-06T15:24:25.514Z,3.00
2022-09-06T15:26:52.820Z,3.63
2022-09-06T15:29:20.279Z,3.60
2022-09-06T15:31:50.357Z,3.10
2022-09-06T15:34:22.663Z,3.50
2022-09-06T15:36:50.429Z,3.28
2022-09-06T15:39:18.063Z,3.65
2022-09-06T15:41:44.540Z,3.03
2022-09-06T15:44:13.653Z,3.25
2022-09-06T15:46:52.437Z,3.08
2022-09-06T15:49:27.839Z,3.28
2022-09-06T15:51:59.862Z,3.40
2022-09-06T15:54:45.914Z,3.40
2022-09-06T15:57:14.462Z,3.20
2022-09-06T15:59:41.192Z,3.67
2022-09-06T16:02:08.374Z,3.47
2022-09-06T16:04:35.147Z,3.83
2022-09-06T16:07:01.564Z,3.10
2022-09-06T16:09:28.345Z,4.47
2022-09-06T16:11:55.383Z,3.88
2022-09-06T16:14:21.831Z,5.32
2022-09-06T16:16:48.325Z,3.72
2022-09-06T16:19:15.098Z,3.45
2022-09-06T16:21:42.800Z,3.97
2022-09-06T16:24:12.117Z,3.40
2022-09-06T16:26:42.060Z,3.42
2022-09-06T16:29:13.179Z,3.10
2022-09-06T16:31:40.781Z,3.33
2022-09-06T16:34:09.252Z,4.47
2022-09-06T16:36:35.635Z,3.58
2022-09-06T16:39:02.136Z,3.40
2022-09-06T16:41:46.256Z,3.58
2022-09-06T16:44:18.465Z,11.32
2022-09-06T16:46:47.195Z,4.32
2022-09-06T16:49:16.645Z,4.65
2022-09-06T16:51:43.223Z,4.43
2022-09-06T16:54:10.123Z,3.63
2022-09-06T16:56:36.764Z,3.58
2022-09-06T16:59:06.400Z,3.78
2022-09-06T17:01:33.847Z,3.80
2022-09-06T17:04:02.108Z,3.20
2022-09-06T17:06:29.808Z,3.17
2022-09-06T17:08:58.745Z,3.45
2022-09-06T17:11:27.220Z,3.03
2022-09-06T17:13:54.953Z,3.22
2022-09-06T17:16:41.138Z,3.10
2022-09-06T17:19:08.998Z,2.78
2022-09-06T17:21:37.026Z,3.22
2022-09-06T17:24:05.120Z,3.10
2022-09-06T17:26:34.501Z,3.33
2022-09-06T17:29:02.307Z,3.33
2022-09-06T17:31:29.076Z,3.42
2022-09-06T17:33:56.150Z,2.40
2022-09-06T17:36:29.491Z,3.20
2022-09-06T17:39:08.395Z,3.40
2022-09-06T17:41:45.568Z,3.30
2022-09-06T17:44:14.683Z,3.38
2022-09-06T17:46:57.167Z,2.90
2022-09-06T17:49:28.527Z,3.13
2022-09-06T17:51:55.190Z,3.22
2022-09-06T17:54:21.579Z,3.00
2022-09-06T17:56:48.463Z,2.97
2022-09-06T17:59:15.514Z,2.88
2022-09-06T18:01:43.875Z,2.67
2022-09-06T18:04:11.783Z,2.75
2022-09-06T18:06:40.748Z,2.92
2022-09-06T18:09:10.146Z,3.22
2022-09-06T18:11:38.504Z,3.15
2022-09-06T18:14:09.852Z,3.67
2022-09-06T18:16:38.221Z,2.90
2022-09-06T18:19:07.540Z,2.92
2022-09-06T18:21:36.624Z,2.80
2022-09-06T18:24:04.276Z,3.20
2022-09-06T18:26:31.159Z,3.10
2022-09-06T18:28:57.611Z,3.50
2022-09-06T18:31:25.594Z,3.20
2022-09-06T18:33:53.096Z,3.13
2022-09-06T18:36:20.030Z,3.13
2022-09-06T18:38:46.544Z,3.10
2022-09-06T18:41:34.885Z,2.70
2022-09-06T18:44:03.048Z,3.70
2022-09-06T18:46:31.207Z,2.63
2022-09-06T18:48:58.276Z,2.42
2022-09-06T18:51:25.040Z,3.25
2022-09-06T18:53:52.742Z,2.70
2022-09-06T18:56:20.186Z,2.58
2022-09-06T18:58:47.010Z,2.95
2022-09-06T19:01:16.113Z,2.80
2022-09-06T19:03:44.475Z,2.33
2022-09-06T19:06:13.879Z,2.97
2022-09-06T19:08:41.419Z,2.80
2022-09-06T19:11:16.423Z,2.90
2022-09-06T19:13:43.994Z,3.40
2022-09-06T19:16:12.365Z,2.85
2022-09-06T19:18:40.500Z,3.17
2022-09-06T19:21:09.846Z,2.97
2022-09-06T19:23:39.346Z,3.10
2022-09-06T19:26:13.868Z,3.13
2022-09-06T19:28:41.139Z,3.22
2022-09-06T19:31:13.194Z,3.35
2022-09-06T19:33:41.152Z,3.10
2022-09-06T19:36:11.809Z,2.47
2022-09-06T19:38:59.531Z,2.78
2022-09-06T19:41:26.094Z,2.70
2022-09-06T19:43:54.082Z,2.83
2022-09-06T19:46:22.255Z,3.10
2022-09-06T19:48:50.891Z,3.50
2022-09-06T19:51:18.635Z,3.20
2022-09-06T19:53:50.883Z,2.83
2022-09-06T19:56:22.184Z,2.80
2022-09-06T19:58:54.221Z,2.38
2022-09-06T20:01:21.273Z,2.90
2022-09-06T20:03:47.832Z,2.83
2022-09-06T20:06:15.087Z,2.97
2022-09-06T20:08:41.940Z,2.50
2022-09-06T20:11:09.933Z,2.97
2022-09-06T20:13:38.466Z,2.90
2022-09-06T20:16:06.891Z,3.08
2022-09-06T20:18:35.304Z,2.65
2022-09-06T20:21:03.304Z,3.17
2022-09-06T20:23:31.429Z,3.25
2022-09-06T20:26:07.241Z,3.28
2022-09-06T20:28:35.218Z,2.72
2022-09-06T20:31:07.308Z,3.05
2022-09-06T20:33:36.123Z,2.67
2022-09-06T20:36:06.682Z,2.72
2022-09-06T20:38:36.511Z,2.70
2022-09-06T20:41:09.795Z,2.70
2022-09-06T20:43:38.524Z,2.58
2022-09-06T20:46:17.725Z,3.15
2022-09-06T20:48:46.509Z,3.03
2022-09-06T20:51:19.051Z,3.00
2022-09-06T20:53:54.509Z,3.20
2022-09-06T20:56:24.533Z,3.05
2022-09-06T20:58:54.183Z,2.83
2022-09-06T21:01:24.619Z,4.00
2022-09-06T21:03:54.758Z,2.92
2022-09-06T21:06:23.181Z,2.65
2022-09-06T21:08:51.585Z,3.00
2022-09-06T21:11:20.612Z,3.33
2022-09-06T21:13:52.126Z,2.78
2022-09-06T21:16:24.688Z,2.70
2022-09-06T21:18:57.426Z,2.65
2022-09-06T21:21:26.091Z,2.75
2022-09-06T21:23:53.995Z,2.30
2022-09-06T21:26:22.620Z,2.38
2022-09-06T21:28:50.954Z,2.58
2022-09-06T21:31:22.474Z,2.47
2022-09-06T21:33:55.807Z,3.00
2022-09-06T21:36:25.103Z,2.60
2022-09-06T21:38:56.759Z,2.92
2022-09-06T21:41:24.447Z,3.00
2022-09-06T21:43:59.264Z,2.70
2022-09-06T21:46:32.505Z,2.63
2022-09-06T21:49:02.653Z,3.10
2022-09-06T21:51:29.383Z,2.50
2022-09-06T21:53:59.104Z,3.15
2022-09-06T21:56:26.850Z,3.17
2022-09-06T21:58:57.684Z,3.00
2022-09-06T22:01:30.106Z,3.03
2022-09-06T22:03:56.503Z,2.83
2022-09-06T22:06:26.224Z,2.65
2022-09-06T22:08:53.859Z,3.08
2022-09-06T22:11:22.620Z,2.90
2022-09-06T22:13:50.379Z,3.30
2022-09-06T22:16:19.852Z,3.13
2022-09-06T22:18:48.665Z,3.30
2022-09-06T22:21:20.335Z,3.10
2022-09-06T22:23:54.934Z,2.67
2022-09-06T22:28:54.063Z,3.45
2022-09-06T22:31:20.685Z,3.15
2022-09-06T22:33:47.116Z,3.38
2022-09-06T22:36:13.884Z,3.47
2022-09-06T22:38:40.363Z,3.20
2022-09-06T22:41:06.722Z,2.90
2022-09-06T22:43:33.631Z,3.00
2022-09-06T22:46:08.170Z,2.67
2022-09-06T22:51:03.290Z,2.90
2022-09-06T22:53:30.633Z,3.08
2022-09-06T22:55:57.384Z,3.13
2022-09-06T22:58:25.160Z,2.90
2022-09-06T23:00:51.695Z,3.28
2022-09-06T23:03:18.622Z,3.80
2022-09-06T23:05:44.998Z,3.63
2022-09-06T23:08:12.059Z,4.22
2022-09-06T23:10:41.597Z,4.22
2022-09-06T23:13:09.539Z,4.53
2022-09-06T23:15:41.132Z,4.68
2022-09-06T23:18:08.312Z,4.13
2022-09-06T23:20:36.218Z,4.88
2022-09-06T23:23:03.712Z,5.63
2022-09-06T23:25:30.246Z,6.70
2022-09-06T23:27:59.371Z,6.85
2022-09-06T23:30:26.222Z,7.15
2022-09-06T23:32:52.629Z,7.47
2022-09-06T23:35:19.423Z,6.93
2022-09-06T23:37:49.903Z,4.72
2022-09-06T23:40:16.925Z,4.68
2022-09-06T23:42:43.927Z,5.28
2022-09-06T23:45:10.414Z,5.50
2022-09-06T23:47:36.886Z,6.32
2022-09-06T23:50:04.643Z,6.18
2022-09-06T23:52:31.006Z,6.32
2022-09-06T23:54:57.448Z,6.60
2022-09-06T23:57:24.350Z,6.78
2022-09-06T23:59:50.768Z,7.13
